createdAt,value
2018-11-21T00:00:23.000Z,52.15
2018-11-21T00:02:51.895Z,51.85
2018-11-21T00:05:20.854Z,51.97
2018-11-21T00:07:49.809Z,52.19
2018-11-21T00:10:18.793Z,52.20
2018-11-21T00:12:50.124Z,52.15
2018-11-21T00:15:19.093Z,50.74
2018-11-21T00:17:48.091Z,51.86
2018-11-21T00:20:17.031Z,51.60
2018-11-21T00:22:45.914Z,51.19
2018-11-21T00:25:14.792Z,51.53
2018-11-21T00:27:43.667Z,51.68
2018-11-21T00:30:13.919Z,52.15
2018-11-21T00:32:42.839Z,51.43
2018-11-21T00:35:11.772Z,51.53
2018-11-21T00:37:40.789Z,51.69
2018-11-21T00:40:11.403Z,52.15
2018-11-21T00:42:46.442Z,52.03
2018-11-21T00:45:09.891Z,52.21
2018-11-21T00:47:38.786Z,52.18
2018-11-21T00:50:07.809Z,52.04
2018-11-21T00:52:37.168Z,52.27
2018-11-21T00:55:06.776Z,52.09
2018-11-21T00:57:35.706Z,51.97
2018-11-21T01:00:05.765Z,51.61
2018-11-21T01:02:34.972Z,51.83
2018-11-21T01:05:03.845Z,52.27
2018-11-21T01:07:32.744Z,52.23
2018-11-21T01:10:01.643Z,52.11
2018-11-21T01:12:30.525Z,52.22
2018-11-21T01:14:59.421Z,52.14
2018-11-21T01:17:28.357Z,52.24
2018-11-21T01:19:57.263Z,51.92
2018-11-21T01:22:26.191Z,51.97
2018-11-21T01:24:55.053Z,50.32
2018-11-21T01:27:23.926Z,51.94
2018-11-21T01:29:52.845Z,51.74
2018-11-21T01:32:21.750Z,51.66
2018-11-21T01:34:50.637Z,51.44
2018-11-21T01:37:19.563Z,51.67
2018-11-21T01:39:48.459Z,51.57
2018-11-21T01:42:17.383Z,51.34
2018-11-21T01:44:46.265Z,51.59
2018-11-21T01:47:15.156Z,51.38
2018-11-21T01:49:44.038Z,51.42
2018-11-21T01:52:12.935Z,51.27
2018-11-21T01:54:41.833Z,51.32
2018-11-21T01:57:10.737Z,51.25
2018-11-21T01:59:39.606Z,50.71
2018-11-21T02:02:08.507Z,51.21
2018-11-21T02:04:37.383Z,51.37
2018-11-21T02:07:06.290Z,51.16
2018-11-21T02:09:35.171Z,51.23
2018-11-21T02:12:04.036Z,51.20
2018-11-21T02:14:32.943Z,51.34
2018-11-21T02:17:01.837Z,51.15
2018-11-21T02:19:31.047Z,50.77
2018-11-21T02:21:59.922Z,51.40
2018-11-21T02:24:28.827Z,51.18
2018-11-21T02:26:57.690Z,51.21
2018-11-21T02:29:26.593Z,50.76
2018-11-21T02:31:55.765Z,51.04
2018-11-21T02:34:24.678Z,51.23
2018-11-21T02:36:53.570Z,51.12
2018-11-21T02:39:22.466Z,51.05
2018-11-21T02:41:51.326Z,51.15
2018-11-21T02:44:20.231Z,51.29
2018-11-21T02:46:49.136Z,51.37
2018-11-21T02:49:18.248Z,51.21
2018-11-21T02:51:47.107Z,51.02
2018-11-21T02:54:16.031Z,51.18
2018-11-21T02:59:54.826Z,50.90
2018-11-21T03:02:23.736Z,51.12
2018-11-21T03:04:52.649Z,50.90
2018-11-21T03:07:21.537Z,50.84
2018-11-21T03:09:50.721Z,51.15
2018-11-21T03:12:19.634Z,51.02
2018-11-21T03:14:48.518Z,50.89
2018-11-21T03:17:17.401Z,50.92
2018-11-21T03:19:46.289Z,50.94
2018-11-21T03:22:15.178Z,51.08
2018-11-21T03:24:44.087Z,50.99
2018-11-21T03:27:12.968Z,50.78
2018-11-21T03:29:41.863Z,50.52
2018-11-21T03:32:10.845Z,51.06
2018-11-21T03:34:39.707Z,50.94
2018-11-21T03:37:08.593Z,50.77
2018-11-21T03:39:37.491Z,50.74
2018-11-21T03:42:06.405Z,50.82
2018-11-21T03:44:35.276Z,50.49
2018-11-21T03:47:04.172Z,51.19
2018-11-21T03:49:33.040Z,50.92
2018-11-21T03:52:01.949Z,51.18
2018-11-21T03:54:30.828Z,51.17
2018-11-21T03:56:59.706Z,49.48
2018-11-21T03:59:28.558Z,51.45
2018-11-21T04:01:57.450Z,51.62
2018-11-21T04:04:26.583Z,51.13
2018-11-21T04:06:55.490Z,51.41
2018-11-21T04:09:24.359Z,51.40
2018-11-21T04:11:53.286Z,51.27
2018-11-21T04:14:22.217Z,51.42
2018-11-21T04:16:51.102Z,51.39
2018-11-21T04:19:19.981Z,50.87
2018-11-21T04:21:48.884Z,51.05
2018-11-21T04:24:17.779Z,51.23
2018-11-21T04:26:46.668Z,51.11
2018-11-21T04:29:15.532Z,51.25
2018-11-21T04:31:44.447Z,51.06
2018-11-21T04:34:13.333Z,51.09
2018-11-21T04:36:42.237Z,50.88
2018-11-21T04:39:11.837Z,50.82
2018-11-21T04:41:40.734Z,50.79
2018-11-21T04:44:09.623Z,50.67
2018-11-21T04:46:38.516Z,50.75
2018-11-21T04:49:07.386Z,50.76
2018-11-21T04:51:36.267Z,50.84
2018-11-21T04:54:05.959Z,50.72
2018-11-21T04:56:34.865Z,50.67
2018-11-21T04:59:03.757Z,50.78
2018-11-21T05:01:32.651Z,50.76
2018-11-21T05:04:01.521Z,50.83
2018-11-21T05:06:30.478Z,50.73
2018-11-21T05:08:59.338Z,50.82
2018-11-21T05:11:28.239Z,50.91
2018-11-21T05:13:57.099Z,49.97
2018-11-21T05:16:25.974Z,51.00
2018-11-21T05:18:54.879Z,51.03
2018-11-21T05:21:23.709Z,51.03
2018-11-21T05:23:52.630Z,50.98
2018-11-21T05:26:21.499Z,50.57
2018-11-21T05:28:50.376Z,50.19
2018-11-21T05:31:19.284Z,50.83
2018-11-21T05:33:48.154Z,51.17
2018-11-21T05:36:17.033Z,51.18
2018-11-21T05:38:45.938Z,51.02
2018-11-21T05:41:14.855Z,50.96
2018-11-21T05:43:43.815Z,51.11
2018-11-21T05:46:12.679Z,51.10
2018-11-21T05:48:41.625Z,51.07
2018-11-21T05:51:10.515Z,51.22
2018-11-21T05:53:39.523Z,50.67
2018-11-21T05:56:08.383Z,51.08
2018-11-21T05:58:37.546Z,51.11
2018-11-21T06:01:06.446Z,50.86
2018-11-21T06:03:35.312Z,50.97
2018-11-21T06:06:09.763Z,51.06
2018-11-21T06:08:33.048Z,51.00
2018-11-21T06:11:01.938Z,51.09
2018-11-21T06:13:30.830Z,50.42
2018-11-21T06:15:59.921Z,51.35
2018-11-21T06:18:28.839Z,51.31
2018-11-21T06:20:57.702Z,51.03
2018-11-21T06:23:26.639Z,50.73
2018-11-21T06:25:55.489Z,51.18
2018-11-21T06:28:24.391Z,51.14
2018-11-21T06:30:53.257Z,51.21
2018-11-21T06:33:22.149Z,51.11
2018-11-21T06:35:51.011Z,51.12
2018-11-21T06:38:19.930Z,51.28
2018-11-21T06:40:48.865Z,51.00
2018-11-21T06:43:17.795Z,50.85
2018-11-21T06:45:46.657Z,51.33
2018-11-21T06:48:15.569Z,51.34
2018-11-21T06:50:44.507Z,51.41
2018-11-21T06:53:13.307Z,50.81
2018-11-21T06:55:42.164Z,51.16
2018-11-21T06:58:11.074Z,51.41
2018-11-21T07:00:39.919Z,51.26
2018-11-21T07:03:08.859Z,51.04
2018-11-21T07:05:37.800Z,51.04
2018-11-21T07:08:06.804Z,51.18
2018-11-21T07:10:35.727Z,51.14
2018-11-21T07:13:07.700Z,51.21
2018-11-21T07:15:33.783Z,51.25
2018-11-21T07:18:02.693Z,51.37
2018-11-21T07:20:31.601Z,51.27
2018-11-21T07:23:00.486Z,51.43
2018-11-21T07:25:29.363Z,51.17
2018-11-21T07:27:58.235Z,50.92
2018-11-21T07:30:27.139Z,51.15
2018-11-21T07:32:56.061Z,50.61
2018-11-21T07:35:24.932Z,51.11
2018-11-21T07:37:53.827Z,50.83
2018-11-21T07:40:22.804Z,50.89
2018-11-21T07:42:51.698Z,50.97
2018-11-21T07:45:20.584Z,51.10
2018-11-21T07:47:49.516Z,51.17
2018-11-21T07:50:19.863Z,50.92
2018-11-21T07:52:49.029Z,50.95
2018-11-21T07:55:17.900Z,50.90
2018-11-21T07:57:51.170Z,50.88
2018-11-21T08:00:53.557Z,51.00
2018-11-21T08:03:23.456Z,50.89
2018-11-21T08:06:17.379Z,50.94
2018-11-21T08:09:03.867Z,50.96
2018-11-21T08:11:49.698Z,50.90
2018-11-21T08:14:37.714Z,50.80
2018-11-21T08:17:24.538Z,50.69
2018-11-21T08:20:15.505Z,50.84
2018-11-21T08:23:02.256Z,50.82
2018-11-21T08:25:37.640Z,50.79
2018-11-21T08:28:20.921Z,50.74
2018-11-21T08:30:50.843Z,50.78
2018-11-21T08:33:20.001Z,50.61
2018-11-21T08:35:48.920Z,50.95
2018-11-21T08:38:17.863Z,51.08
2018-11-21T08:40:46.744Z,50.83
2018-11-21T08:43:15.607Z,50.63
2018-11-21T08:45:44.570Z,50.27
2018-11-21T08:48:14.132Z,51.04
2018-11-21T08:50:43.040Z,51.13
2018-11-21T08:53:11.934Z,51.04
2018-11-21T08:55:40.810Z,50.72
2018-11-21T08:58:09.875Z,50.68
2018-11-21T09:00:38.769Z,50.34
2018-11-21T09:03:08.009Z,51.23
2018-11-21T09:05:36.939Z,51.12
2018-11-21T09:08:07.073Z,51.33
2018-11-21T09:13:04.029Z,50.73
2018-11-21T09:15:32.945Z,51.33
2018-11-21T09:18:01.802Z,51.41
2018-11-21T09:20:30.693Z,51.14
2018-11-21T09:22:59.591Z,51.40
2018-11-21T09:25:28.469Z,51.16
2018-11-21T09:27:57.328Z,51.14
2018-11-21T09:30:26.209Z,50.59
2018-11-21T09:32:56.288Z,49.24
2018-11-21T09:35:25.156Z,51.64
2018-11-21T09:38:29.429Z,51.01
2018-11-21T09:40:58.174Z,50.93
2018-11-21T09:43:27.096Z,51.14
2018-11-21T09:45:56.098Z,51.21
2018-11-21T09:48:24.922Z,50.87
2018-11-21T09:50:53.812Z,50.29
2018-11-21T09:53:22.746Z,50.78
2018-11-21T09:55:51.548Z,51.00
2018-11-21T09:58:20.486Z,51.00
2018-11-21T10:01:25.484Z,50.39
2018-11-21T10:03:54.610Z,50.47
2018-11-21T10:06:25.252Z,50.84
2018-11-21T10:08:55.886Z,50.84
2018-11-21T10:11:25.024Z,50.66
2018-11-21T10:13:53.924Z,50.85
2018-11-21T10:16:22.909Z,50.83
2018-11-21T10:18:53.337Z,50.72
2018-11-21T10:21:23.776Z,50.67
2018-11-21T10:23:52.667Z,50.62
2018-11-21T10:26:21.570Z,50.81
2018-11-21T10:28:51.330Z,50.26
2018-11-21T10:31:20.199Z,50.34
2018-11-21T10:33:49.077Z,50.59
2018-11-21T10:36:18.037Z,50.51
2018-11-21T10:38:47.092Z,50.51
2018-11-21T10:41:15.987Z,50.46
2018-11-21T10:43:44.856Z,50.32
2018-11-21T10:46:14.256Z,50.82
2018-11-21T10:48:43.183Z,50.46
2018-11-21T10:51:12.041Z,50.70
2018-11-21T10:53:40.936Z,50.77
2018-11-21T10:56:09.831Z,50.13
2018-11-21T10:58:38.728Z,50.56
2018-11-21T11:01:25.152Z,50.52
2018-11-21T11:04:21.925Z,50.44
2018-11-21T11:07:18.697Z,50.60
2018-11-21T11:10:05.132Z,50.52
2018-11-21T11:13:02.138Z,50.47
2018-11-21T11:15:48.716Z,49.93
2018-11-21T11:18:54.609Z,50.63
2018-11-21T11:21:45.571Z,50.35
2018-11-21T11:24:32.247Z,48.95
2018-11-21T11:27:16.905Z,50.72
2018-11-21T11:30:07.832Z,50.61
2018-11-21T11:33:04.346Z,50.61
2018-11-21T11:36:01.327Z,50.50
2018-11-21T11:39:04.244Z,50.63
2018-11-21T11:41:50.735Z,50.71
2018-11-21T11:44:44.516Z,50.80
2018-11-21T11:47:26.831Z,49.76
2018-11-21T11:50:19.847Z,50.71
2018-11-21T11:53:04.426Z,49.95
2018-11-21T11:55:51.961Z,50.30
2018-11-21T11:58:29.612Z,50.93
2018-11-21T12:01:20.795Z,50.75
2018-11-21T12:04:07.187Z,50.64
2018-11-21T12:06:56.996Z,50.50
2018-11-21T12:09:47.335Z,49.59
2018-11-21T12:12:50.338Z,50.80
2018-11-21T12:15:36.948Z,50.82
2018-11-21T12:18:15.557Z,49.89
2018-11-21T12:21:21.339Z,50.79
2018-11-21T12:24:20.549Z,50.10
2018-11-21T12:27:05.543Z,50.34
2018-11-21T12:29:52.281Z,50.68
2018-11-21T12:32:46.389Z,50.61
2018-11-21T12:35:28.004Z,50.50
2018-11-21T12:38:13.680Z,50.65
2018-11-21T12:40:53.275Z,50.65
2018-11-21T12:43:41.230Z,49.98
2018-11-21T12:46:27.837Z,50.88
2018-11-21T12:49:14.612Z,50.41
2018-11-21T12:51:57.212Z,50.21
2018-11-21T12:54:45.194Z,50.54
2018-11-21T12:57:31.592Z,50.62
2018-11-21T13:00:11.807Z,50.66
2018-11-21T13:02:50.974Z,50.66
2018-11-21T13:05:40.025Z,50.80
2018-11-21T13:08:31.859Z,50.72
2018-11-21T13:11:24.154Z,50.84
2018-11-21T13:14:22.022Z,50.86
2018-11-21T13:17:08.281Z,50.78
2018-11-21T13:19:52.942Z,50.68
2018-11-21T13:22:27.494Z,50.98
2018-11-21T13:25:16.804Z,50.79
2018-11-21T13:28:01.254Z,50.63
2018-11-21T13:30:53.292Z,50.81
2018-11-21T13:33:38.308Z,50.82
2018-11-21T13:36:10.034Z,50.91
2018-11-21T13:39:05.327Z,50.77
2018-11-21T13:41:40.053Z,50.84
2018-11-21T13:44:15.224Z,50.81
2018-11-21T13:47:01.518Z,50.46
2018-11-21T13:49:48.013Z,50.59
2018-11-21T13:52:40.252Z,50.64
2018-11-21T13:55:06.905Z,50.85
2018-11-21T13:57:33.762Z,50.82
2018-11-21T14:00:00.773Z,50.94
2018-11-21T14:02:27.442Z,50.54
2018-11-21T14:04:54.342Z,50.69
2018-11-21T14:07:21.034Z,50.79
2018-11-21T14:09:47.766Z,50.87
2018-11-21T14:12:14.463Z,51.10
2018-11-21T14:14:41.145Z,50.15
2018-11-21T14:17:07.879Z,50.77
2018-11-21T14:19:34.628Z,50.20
2018-11-21T14:22:01.254Z,51.09
2018-11-21T14:24:27.989Z,50.55
2018-11-21T14:26:54.626Z,50.21
2018-11-21T14:29:21.375Z,51.31
2018-11-21T14:31:52.788Z,51.24
2018-11-21T14:34:19.444Z,50.53
2018-11-21T14:36:46.101Z,50.35
2018-11-21T14:39:13.511Z,50.45
2018-11-21T14:41:41.321Z,50.66
2018-11-21T14:44:08.361Z,51.19
2018-11-21T14:46:35.025Z,50.94
2018-11-21T14:49:01.624Z,50.75
2018-11-21T14:51:28.260Z,50.65
2018-11-21T14:53:54.962Z,49.21
2018-11-21T14:56:21.593Z,51.15
2018-11-21T14:58:48.494Z,51.13
2018-11-21T15:01:15.128Z,50.63
2018-11-21T15:03:41.790Z,50.29
2018-11-21T15:06:08.479Z,50.54
2018-11-21T15:08:35.655Z,49.46
2018-11-21T15:11:02.300Z,50.71
2018-11-21T15:13:28.957Z,49.70
2018-11-21T15:15:55.661Z,50.98
2018-11-21T15:18:22.341Z,50.13
2018-11-21T15:20:48.954Z,49.95
2018-11-21T15:23:15.593Z,50.91
2018-11-21T15:25:42.298Z,50.58
2018-11-21T15:28:09.413Z,49.79
2018-11-21T15:30:36.038Z,50.14
2018-11-21T15:33:02.664Z,51.09
2018-11-21T15:35:29.328Z,51.10
2018-11-21T15:37:56.021Z,51.61
2018-11-21T15:40:24.039Z,49.49
2018-11-21T15:42:50.972Z,49.72
2018-11-21T15:45:19.201Z,51.62
2018-11-21T15:47:48.430Z,51.04
2018-11-21T15:50:15.971Z,50.52
2018-11-21T15:52:42.777Z,50.48
2018-11-21T15:55:10.555Z,48.86
2018-11-21T15:57:37.394Z,50.13
2018-11-21T16:00:08.723Z,50.17
2018-11-21T16:02:35.364Z,51.47
2018-11-21T16:05:02.005Z,50.71
2018-11-21T16:07:28.658Z,50.53
2018-11-21T16:09:55.321Z,51.14
2018-11-21T16:12:21.943Z,51.37
2018-11-21T16:14:48.598Z,50.47
2018-11-21T16:17:15.694Z,50.79
2018-11-21T16:19:42.376Z,50.48
2018-11-21T16:22:09.092Z,50.89
2018-11-21T16:24:35.766Z,50.86
2018-11-21T16:27:02.423Z,51.03
2018-11-21T16:29:29.287Z,51.29
2018-11-21T16:31:56.131Z,51.85
2018-11-21T16:34:22.924Z,50.15
2018-11-21T16:36:49.884Z,50.38
2018-11-21T16:39:16.573Z,51.48
2018-11-21T16:41:43.171Z,51.21
2018-11-21T16:44:09.907Z,49.40
2018-11-21T16:46:36.584Z,51.99
2018-11-21T16:49:03.510Z,51.96
2018-11-21T16:51:31.072Z,50.37
2018-11-21T16:53:57.999Z,51.05
2018-11-21T16:56:24.597Z,50.52
2018-11-21T16:58:51.300Z,50.72
2018-11-21T17:01:18.028Z,50.21
2018-11-21T17:03:44.664Z,50.62
2018-11-21T17:06:11.320Z,51.70
2018-11-21T17:08:38.014Z,51.94
2018-11-21T17:11:04.768Z,51.03
2018-11-21T17:13:31.415Z,50.00
2018-11-21T17:15:58.094Z,52.03
2018-11-21T17:18:24.728Z,51.50
2018-11-21T17:20:51.518Z,52.00
2018-11-21T17:23:18.082Z,51.79
2018-11-21T17:25:44.734Z,52.75
2018-11-21T17:28:11.424Z,51.51
2018-11-21T17:30:38.209Z,52.54
2018-11-21T17:33:04.840Z,52.51
2018-11-21T17:35:31.483Z,50.05
2018-11-21T17:38:01.899Z,52.45
2018-11-21T17:40:30.682Z,51.59
2018-11-21T17:42:57.730Z,51.90
2018-11-21T17:45:24.522Z,51.81
2018-11-21T17:47:51.126Z,50.69
2018-11-21T17:50:19.068Z,52.85
2018-11-21T17:52:46.258Z,51.88
2018-11-21T17:55:14.651Z,51.17
2018-11-21T17:57:41.338Z,51.00
2018-11-21T18:00:16.102Z,51.07
2018-11-21T18:02:42.729Z,50.83
2018-11-21T18:05:10.556Z,52.76
2018-11-21T18:07:37.376Z,51.46
2018-11-21T18:10:06.761Z,51.55
2018-11-21T18:12:33.374Z,51.19
2018-11-21T18:14:59.977Z,52.17
2018-11-21T18:17:26.732Z,53.01
2018-11-21T18:19:53.378Z,52.46
2018-11-21T18:22:20.288Z,53.34
2018-11-21T18:24:46.894Z,52.30
2018-11-21T18:27:13.543Z,52.44
2018-11-21T18:29:40.139Z,51.97
2018-11-21T18:32:06.744Z,51.63
2018-11-21T18:34:33.338Z,51.90
2018-11-21T18:37:02.214Z,51.25
2018-11-21T18:39:28.853Z,52.34
2018-11-21T18:41:58.105Z,51.83
2018-11-21T18:44:22.362Z,51.81
2018-11-21T18:46:49.094Z,52.15
2018-11-21T18:49:15.719Z,51.74
2018-11-21T18:51:42.372Z,51.90
2018-11-21T18:54:09.009Z,51.14
2018-11-21T18:56:45.359Z,51.51
2018-11-21T18:59:14.787Z,52.18
2018-11-21T19:01:46.659Z,51.46
2018-11-21T19:04:08.108Z,51.59
2018-11-21T19:06:34.832Z,52.67
2018-11-21T19:09:01.589Z,52.61
2018-11-21T19:11:28.301Z,52.46
2018-11-21T19:13:55.041Z,52.54
2018-11-21T19:16:21.762Z,53.16
2018-11-21T19:18:48.368Z,51.64
2018-11-21T19:21:15.106Z,53.75
2018-11-21T19:23:41.870Z,51.65
2018-11-21T19:26:08.610Z,51.96
2018-11-21T19:28:35.447Z,52.02
2018-11-21T19:31:02.137Z,51.33
2018-11-21T19:33:29.028Z,52.43
2018-11-21T19:35:55.807Z,52.79
2018-11-21T19:38:22.423Z,52.53
2018-11-21T19:40:49.051Z,51.03
2018-11-21T19:43:15.702Z,52.17
2018-11-21T19:45:42.353Z,51.74
2018-11-21T19:48:09.005Z,52.99
2018-11-21T19:50:35.918Z,52.03
2018-11-21T19:53:02.638Z,51.95
2018-11-21T19:55:30.626Z,52.69
2018-11-21T19:57:57.320Z,52.81
2018-11-21T20:00:25.499Z,53.63
2018-11-21T20:02:52.501Z,52.04
2018-11-21T20:05:19.235Z,53.14
2018-11-21T20:07:45.867Z,52.19
2018-11-21T20:10:13.506Z,53.31
2018-11-21T20:12:40.728Z,53.84
2018-11-21T20:15:09.456Z,54.02
2018-11-21T20:17:36.127Z,52.52
2018-11-21T20:20:03.483Z,52.67
2018-11-21T20:22:30.240Z,52.83
2018-11-21T20:24:56.923Z,53.81
2018-11-21T20:27:23.687Z,53.85
2018-11-21T20:29:54.657Z,54.06
2018-11-21T20:32:17.342Z,53.45
2018-11-21T20:34:44.334Z,53.51
2018-11-21T20:37:11.276Z,52.52
2018-11-21T20:39:38.092Z,52.93
2018-11-21T20:42:04.951Z,53.37
2018-11-21T20:44:32.287Z,52.82
2018-11-21T20:46:59.054Z,52.64
2018-11-21T20:49:25.677Z,52.54
2018-11-21T20:51:52.515Z,53.22
2018-11-21T20:54:19.301Z,52.65
2018-11-21T20:56:45.997Z,52.03
2018-11-21T20:59:12.666Z,52.47
2018-11-21T21:01:39.352Z,52.46
2018-11-21T21:04:06.235Z,52.90
2018-11-21T21:06:33.386Z,53.42
2018-11-21T21:09:00.108Z,53.00
2018-11-21T21:11:27.119Z,52.18
2018-11-21T21:13:54.073Z,52.96
2018-11-21T21:16:20.714Z,52.53
2018-11-21T21:18:47.387Z,52.85
2018-11-21T21:21:15.868Z,52.53
2018-11-21T21:23:40.666Z,52.78
2018-11-21T21:26:07.739Z,52.79
2018-11-21T21:28:34.343Z,52.85
2018-11-21T21:31:00.949Z,52.76
2018-11-21T21:33:27.615Z,52.46
2018-11-21T21:35:54.317Z,51.72
2018-11-21T21:38:20.923Z,52.36
2018-11-21T21:40:47.798Z,52.29
2018-11-21T21:43:14.476Z,52.49
2018-11-21T21:45:41.088Z,52.18
2018-11-21T21:48:07.770Z,52.45
2018-11-21T21:50:34.690Z,52.02
2018-11-21T21:53:01.442Z,52.64
2018-11-21T21:55:29.345Z,51.63
2018-11-21T21:57:56.065Z,52.69
2018-11-21T22:00:23.888Z,53.24
2018-11-21T22:02:51.291Z,53.07
2018-11-21T22:05:17.954Z,52.98
2018-11-21T22:07:45.045Z,52.29
2018-11-21T22:10:13.036Z,52.78
2018-11-21T22:12:39.715Z,52.45
2018-11-21T22:15:15.657Z,52.45
2018-11-21T22:17:42.326Z,51.84
2018-11-21T22:20:09.154Z,51.99
2018-11-21T22:22:35.938Z,52.82
2018-11-21T22:25:02.707Z,52.45
2018-11-21T22:27:29.627Z,51.94
2018-11-21T22:29:56.289Z,52.29
2018-11-21T22:32:23.042Z,52.74
2018-11-21T22:34:49.738Z,52.48
2018-11-21T22:37:16.440Z,52.66
2018-11-21T22:39:43.223Z,52.72
2018-11-21T22:42:10.012Z,52.00
